sensor_id;sensor_type;location;lat;lon;timestamp;pressure;altitude;pressure_sealevel;temperature;humidity
11692;BME280;33659;42.672;23.354;2023-02-23T00:01:10;94196.66;;;12.02;49.42
11692;BME280;33659;42.672;23.354;2023-02-23T00:03:37;94203.59;;;11.79;50.07
11692;BME280;33659;42.672;23.354;2023-02-23T00:06:05;94206.19;;;11.63;49.91
11692;BME280;33659;42.672;23.354;2023-02-23T00:08:33;94207.19;;;11.43;50.77
11692;BME280;33659;42.672;23.354;2023-02-23T00:11:01;94211.91;;;11.37;51.14
11692;BME280;33659;42.672;23.354;2023-02-23T00:13:30;94213.75;;;11.36;51.08
11692;BME280;33659;42.672;23.354;2023-02-23T00:15:56;94209.88;;;11.46;50.93
11692;BME280;33659;42.672;23.354;2023-02-23T00:18:23;94214.88;;;11.51;50.79
11692;BME280;33659;42.672;23.354;2023-02-23T00:20:55;94218.41;;;11.59;50.73
11692;BME280;33659;42.672;23.354;2023-02-23T00:23:23;94219.44;;;11.70;50.38
11692;BME280;33659;42.672;23.354;2023-02-23T00:25:53;94220.50;;;11.81;50.02
11692;BME280;33659;42.672;23.354;2023-02-23T00:28:20;94213.16;;;11.87;49.89
11692;BME280;33659;42.672;23.354;2023-02-23T00:30:47;94215.94;;;11.94;49.54
11692;BME280;33659;42.672;23.354;2023-02-23T00:33:13;94219.56;;;11.89;48.78
11692;BME280;33659;42.672;23.354;2023-02-23T00:35:40;94217.25;;;11.72;48.74
11692;BME280;33659;42.672;23.354;2023-02-23T00:38:07;94211.91;;;11.37;49.73
11692;BME280;33659;42.672;23.354;2023-02-23T00:40:34;94210.66;;;11.03;50.77
11692;BME280;33659;42.672;23.354;2023-02-23T00:43:02;94212.03;;;10.84;51.12
11692;BME280;33659;42.672;23.354;2023-02-23T00:45:28;94184.63;;;10.38;51.21
11692;BME280;33659;42.672;23.354;2023-02-23T00:47:55;94222.56;;;10.36;51.73
11692;BME280;33659;42.672;23.354;2023-02-23T00:50:22;94216.16;;;10.09;52.30
11692;BME280;33659;42.672;23.354;2023-02-23T00:52:48;94206.19;;;9.98;52.69
11692;BME280;33659;42.672;23.354;2023-02-23T00:55:15;94212.78;;;9.96;52.78
11692;BME280;33659;42.672;23.354;2023-02-23T00:57:42;94206.25;;;9.90;52.99
11692;BME280;33659;42.672;23.354;2023-02-23T01:00:11;94199.84;;;9.75;53.34
11692;BME280;33659;42.672;23.354;2023-02-23T01:02:43;94211.25;;;9.83;53.48
11692;BME280;33659;42.672;23.354;2023-02-23T01:05:09;94208.88;;;9.77;53.01
11692;BME280;33659;42.672;23.354;2023-02-23T01:07:38;94206.03;;;9.58;53.69
11692;BME280;33659;42.672;23.354;2023-02-23T01:10:07;94209.47;;;9.38;54.34
11692;BME280;33659;42.672;23.354;2023-02-23T01:12:45;94209.16;;;9.06;55.01
11692;BME280;33659;42.672;23.354;2023-02-23T01:15:14;94212.75;;;8.81;56.28
11692;BME280;33659;42.672;23.354;2023-02-23T01:17:41;94209.22;;;8.64;56.78
11692;BME280;33659;42.672;23.354;2023-02-23T01:20:10;94207.16;;;8.49;57.10
11692;BME280;33659;42.672;23.354;2023-02-23T01:22:42;94196.69;;;8.37;57.35
11692;BME280;33659;42.672;23.354;2023-02-23T01:25:08;94209.50;;;8.42;57.55
11692;BME280;33659;42.672;23.354;2023-02-23T01:27:36;94205.06;;;8.43;57.63
11692;BME280;33659;42.672;23.354;2023-02-23T01:30:04;94212.28;;;8.37;57.67
11692;BME280;33659;42.672;23.354;2023-02-23T01:32:33;94204.22;;;8.30;57.87
11692;BME280;33659;42.672;23.354;2023-02-23T01:35:00;94214.94;;;8.28;58.23
11692;BME280;33659;42.672;23.354;2023-02-23T01:37:28;94209.22;;;8.35;57.94
11692;BME280;33659;42.672;23.354;2023-02-23T01:39:55;94207.41;;;8.35;57.90
11692;BME280;33659;42.672;23.354;2023-02-23T01:42:22;94208.00;;;8.41;57.69
11692;BME280;33659;42.672;23.354;2023-02-23T01:45:22;94203.81;;;8.49;57.43
11692;BME280;33659;42.672;23.354;2023-02-23T01:47:54;94196.75;;;8.49;57.40
11692;BME280;33659;42.672;23.354;2023-02-23T01:50:23;94195.19;;;8.57;57.18
11692;BME280;33659;42.672;23.354;2023-02-23T01:52:51;94195.56;;;8.67;57.20
11692;BME280;33659;42.672;23.354;2023-02-23T01:55:20;94197.78;;;8.78;56.58
11692;BME280;33659;42.672;23.354;2023-02-23T01:57:50;94184.63;;;8.74;56.32
11692;BME280;33659;42.672;23.354;2023-02-23T02:00:19;94196.03;;;8.82;56.21
11692;BME280;33659;42.672;23.354;2023-02-23T02:02:51;94196.25;;;8.77;56.19
11692;BME280;33659;42.672;23.354;2023-02-23T02:05:19;94193.66;;;8.77;56.62
11692;BME280;33659;42.672;23.354;2023-02-23T02:07:48;94188.78;;;8.87;56.17
11692;BME280;33659;42.672;23.354;2023-02-23T02:10:23;94194.06;;;9.00;55.80
11692;BME280;33659;42.672;23.354;2023-02-23T02:13:16;94191.28;;;9.17;55.89
11692;BME280;33659;42.672;23.354;2023-02-23T02:16:11;94192.97;;;9.46;55.26
11692;BME280;33659;42.672;23.354;2023-02-23T02:25:21;94187.44;;;10.21;52.99
11692;BME280;33659;42.672;23.354;2023-02-23T02:31:23;94200.69;;;10.52;52.10
11692;BME280;33659;42.672;23.354;2023-02-23T02:40:07;94198.06;;;10.65;51.93
11692;BME280;33659;42.672;23.354;2023-02-23T02:42:54;94197.28;;;10.64;51.84
11692;BME280;33659;42.672;23.354;2023-02-23T02:45:29;94193.78;;;10.72;51.74
11692;BME280;33659;42.672;23.354;2023-02-23T02:48:03;94199.00;;;10.72;51.85
11692;BME280;33659;42.672;23.354;2023-02-23T02:50:39;94189.84;;;10.78;51.92
11692;BME280;33659;42.672;23.354;2023-02-23T02:53:10;94185.16;;;10.84;51.30
11692;BME280;33659;42.672;23.354;2023-02-23T02:55:40;94194.50;;;10.85;51.42
11692;BME280;33659;42.672;23.354;2023-02-23T02:58:10;94188.94;;;10.87;51.65
11692;BME280;33659;42.672;23.354;2023-02-23T03:00:39;94189.69;;;10.87;51.57
11692;BME280;33659;42.672;23.354;2023-02-23T03:03:28;94189.50;;;10.80;51.47
11692;BME280;33659;42.672;23.354;2023-02-23T03:06:14;94172.47;;;10.70;51.84
11692;BME280;33659;42.672;23.354;2023-02-23T03:09:03;94182.72;;;10.63;52.09
11692;BME280;33659;42.672;23.354;2023-02-23T03:12:00;94190.31;;;10.56;52.42
11692;BME280;33659;42.672;23.354;2023-02-23T03:14:55;94199.94;;;10.52;52.08
11692;BME280;33659;42.672;23.354;2023-02-23T03:17:45;94185.91;;;10.44;52.17
11692;BME280;33659;42.672;23.354;2023-02-23T03:20:39;94196.59;;;10.39;52.40
11692;BME280;33659;42.672;23.354;2023-02-23T03:23:31;94201.47;;;10.28;52.92
11692;BME280;33659;42.672;23.354;2023-02-23T03:26:24;94200.41;;;10.29;53.17
11692;BME280;33659;42.672;23.354;2023-02-23T03:29:17;94199.63;;;10.29;52.89
11692;BME280;33659;42.672;23.354;2023-02-23T03:32:06;94204.44;;;10.27;52.92
11692;BME280;33659;42.672;23.354;2023-02-23T03:34:57;94203.00;;;10.29;53.16
11692;BME280;33659;42.672;23.354;2023-02-23T03:37:49;94207.47;;;10.29;53.26
11692;BME280;33659;42.672;23.354;2023-02-23T03:40:37;94213.56;;;10.33;52.85
11692;BME280;33659;42.672;23.354;2023-02-23T03:43:26;94210.94;;;10.21;53.00
11692;BME280;33659;42.672;23.354;2023-02-23T03:46:13;94209.53;;;10.23;53.35
11692;BME280;33659;42.672;23.354;2023-02-23T03:49:03;94212.69;;;10.29;53.21
11692;BME280;33659;42.672;23.354;2023-02-23T03:51:56;94218.78;;;10.33;53.12
11692;BME280;33659;42.672;23.354;2023-02-23T03:54:47;94221.06;;;10.35;52.86
11692;BME280;33659;42.672;23.354;2023-02-23T03:57:33;94216.59;;;10.35;52.86
11692;BME280;33659;42.672;23.354;2023-02-23T04:00:24;94220.72;;;10.36;52.98
11692;BME280;33659;42.672;23.354;2023-02-23T04:03:11;94225.19;;;10.23;52.62
11692;BME280;33659;42.672;23.354;2023-02-23T04:05:58;94221.25;;;10.17;53.27
11692;BME280;33659;42.672;23.354;2023-02-23T04:08:43;94226.25;;;10.22;53.23
11692;BME280;33659;42.672;23.354;2023-02-23T04:11:33;94231.47;;;10.22;52.97
11692;BME280;33659;42.672;23.354;2023-02-23T04:14:26;94229.34;;;10.24;52.80
11692;BME280;33659;42.672;23.354;2023-02-23T04:16:57;94232.38;;;10.26;52.88
11692;BME280;33659;42.672;23.354;2023-02-23T04:19:25;94220.63;;;10.20;53.22
11692;BME280;33659;42.672;23.354;2023-02-23T04:21:52;94216.16;;;10.09;54.16
11692;BME280;33659;42.672;23.354;2023-02-23T04:24:18;94217.66;;;10.10;54.08
11692;BME280;33659;42.672;23.354;2023-02-23T04:26:45;94218.56;;;10.01;54.40
11692;BME280;33659;42.672;23.354;2023-02-23T04:29:12;94220.06;;;10.02;53.98
11692;BME280;33659;42.672;23.354;2023-02-23T04:31:39;94218.34;;;10.07;53.81
11692;BME280;33659;42.672;23.354;2023-02-23T04:34:07;94216.69;;;10.02;53.97
11692;BME280;33659;42.672;23.354;2023-02-23T04:36:34;94227.81;;;10.11;53.55
11692;BME280;33659;42.672;23.354;2023-02-23T04:39:02;94227.81;;;10.11;53.79
11692;BME280;33659;42.672;23.354;2023-02-23T04:41:28;94224.75;;;10.09;53.97
11692;BME280;33659;42.672;23.354;2023-02-23T04:43:55;94227.47;;;10.13;53.40
11692;BME280;33659;42.672;23.354;2023-02-23T04:46:21;94228.66;;;10.15;53.48
11692;BME280;33659;42.672;23.354;2023-02-23T04:48:48;94226.16;;;10.19;53.68
11692;BME280;33659;42.672;23.354;2023-02-23T04:51:16;94233.22;;;10.18;53.14
11692;BME280;33659;42.672;23.354;2023-02-23T04:53:43;94226.59;;;10.21;53.17
11692;BME280;33659;42.672;23.354;2023-02-23T04:56:09;94224.94;;;10.16;53.63
11692;BME280;33659;42.672;23.354;2023-02-23T04:58:36;94226.91;;;10.19;53.59
11692;BME280;33659;42.672;23.354;2023-02-23T05:01:04;94229.41;;;10.16;53.20
11692;BME280;33659;42.672;23.354;2023-02-23T05:03:31;94230.84;;;10.13;53.28
11692;BME280;33659;42.672;23.354;2023-02-23T05:05:58;94226.03;;;10.15;53.10
11692;BME280;33659;42.672;23.354;2023-02-23T05:08:26;94228.44;;;10.20;52.95
11692;BME280;33659;42.672;23.354;2023-02-23T05:10:53;94224.53;;;10.14;53.07
11692;BME280;33659;42.672;23.354;2023-02-23T05:13:19;94230.41;;;10.11;53.06
11692;BME280;33659;42.672;23.354;2023-02-23T05:15:46;94229.19;;;10.09;53.42
11692;BME280;33659;42.672;23.354;2023-02-23T05:18:13;94230.41;;;10.11;53.50
11692;BME280;33659;42.672;23.354;2023-02-23T05:20:41;94226.94;;;10.07;53.43
11692;BME280;33659;42.672;23.354;2023-02-23T05:23:09;94236.59;;;10.07;53.17
11692;BME280;33659;42.672;23.354;2023-02-23T05:25:38;94233.13;;;10.02;53.50
11692;BME280;33659;42.672;23.354;2023-02-23T05:28:04;94237.03;;;9.96;53.78
11692;BME280;33659;42.672;23.354;2023-02-23T05:30:31;94237.78;;;9.97;53.89
11692;BME280;33659;42.672;23.354;2023-02-23T05:32:58;94229.72;;;9.77;53.64
11692;BME280;33659;42.672;23.354;2023-02-23T05:35:25;94253.53;;;9.76;54.16
11692;BME280;33659;42.672;23.354;2023-02-23T05:37:51;94240.78;;;9.62;54.42
11692;BME280;33659;42.672;23.354;2023-02-23T05:40:18;94246.97;;;9.58;54.86
11692;BME280;33659;42.672;23.354;2023-02-23T05:42:46;94260.56;;;9.63;54.95
11692;BME280;33659;42.672;23.354;2023-02-23T05:45:13;94255.34;;;9.63;54.90
11692;BME280;33659;42.672;23.354;2023-02-23T05:47:40;94258.72;;;9.64;54.55
11692;BME280;33659;42.672;23.354;2023-02-23T05:50:08;94266.75;;;9.59;54.94
11692;BME280;33659;42.672;23.354;2023-02-23T05:52:37;94266.41;;;9.48;55.31
11692;BME280;33659;42.672;23.354;2023-02-23T05:55:06;94269.56;;;9.20;55.41
11692;BME280;33659;42.672;23.354;2023-02-23T05:57:33;94281.19;;;8.81;56.52
11692;BME280;33659;42.672;23.354;2023-02-23T06:00:02;94282.34;;;8.51;57.26
11692;BME280;33659;42.672;23.354;2023-02-23T06:02:29;94279.06;;;8.24;58.12
11692;BME280;33659;42.672;23.354;2023-02-23T06:04:56;94280.19;;;8.14;58.51
11692;BME280;33659;42.672;23.354;2023-02-23T06:07:22;94283.13;;;8.04;58.74
11692;BME280;33659;42.672;23.354;2023-02-23T06:09:49;94281.00;;;8.06;58.84
11692;BME280;33659;42.672;23.354;2023-02-23T06:12:15;94288.31;;;8.13;58.75
11692;BME280;33659;42.672;23.354;2023-02-23T06:14:42;94288.53;;;8.29;58.57
11692;BME280;33659;42.672;23.354;2023-02-23T06:17:10;94294.00;;;8.45;57.90
11692;BME280;33659;42.672;23.354;2023-02-23T06:19:37;94295.63;;;8.58;57.77
11692;BME280;33659;42.672;23.354;2023-02-23T06:22:03;94295.03;;;8.73;57.53
11692;BME280;33659;42.672;23.354;2023-02-23T06:24:30;94298.31;;;8.91;56.73
11692;BME280;33659;42.672;23.354;2023-02-23T06:26:57;94302.50;;;9.04;56.72
11692;BME280;33659;42.672;23.354;2023-02-23T06:29:23;94295.16;;;9.18;56.26
11692;BME280;33659;42.672;23.354;2023-02-23T06:31:50;94301.09;;;9.40;55.87
11692;BME280;33659;42.672;23.354;2023-02-23T06:34:18;94287.81;;;9.54;55.38
11692;BME280;33659;42.672;23.354;2023-02-23T06:36:45;94301.00;;;9.69;54.45
11692;BME280;33659;42.672;23.354;2023-02-23T06:39:11;94309.22;;;9.59;54.23
11692;BME280;33659;42.672;23.354;2023-02-23T06:41:38;94296.59;;;9.49;54.77
11692;BME280;33659;42.672;23.354;2023-02-23T06:44:05;94304.38;;;9.37;54.77
11692;BME280;33659;42.672;23.354;2023-02-23T06:46:31;94299.03;;;9.33;55.17
11692;BME280;33659;42.672;23.354;2023-02-23T06:48:58;94300.03;;;9.41;55.00
11692;BME280;33659;42.672;23.354;2023-02-23T06:51:26;94298.53;;;9.52;55.17
11692;BME280;33659;42.672;23.354;2023-02-23T06:53:53;94307.53;;;9.75;54.41
11692;BME280;33659;42.672;23.354;2023-02-23T06:56:20;94309.50;;;9.91;54.27
11692;BME280;33659;42.672;23.354;2023-02-23T06:58:47;94304.84;;;9.96;54.23
11692;BME280;33659;42.672;23.354;2023-02-23T07:01:14;94308.97;;;10.10;53.74
11692;BME280;33659;42.672;23.354;2023-02-23T07:03:41;94303.47;;;10.23;53.62
11692;BME280;33659;42.672;23.354;2023-02-23T07:06:08;94308.69;;;10.36;52.87
11692;BME280;33659;42.672;23.354;2023-02-23T07:08:36;94298.50;;;10.30;52.72
11692;BME280;33659;42.672;23.354;2023-02-23T07:11:06;94309.47;;;10.48;52.43
11692;BME280;33659;42.672;23.354;2023-02-23T07:13:33;94309.59;;;10.52;52.32
11692;BME280;33659;42.672;23.354;2023-02-23T07:16:00;94303.81;;;10.58;52.24
11692;BME280;33659;42.672;23.354;2023-02-23T07:18:27;94310.44;;;10.56;52.61
11692;BME280;33659;42.672;23.354;2023-02-23T07:20:53;94313.28;;;10.51;52.82
11692;BME280;33659;42.672;23.354;2023-02-23T07:23:20;94307.31;;;10.50;52.86
11692;BME280;33659;42.672;23.354;2023-02-23T07:25:50;94308.16;;;10.54;52.77
11692;BME280;33659;42.672;23.354;2023-02-23T07:28:17;94310.56;;;10.60;52.89
11692;BME280;33659;42.672;23.354;2023-02-23T07:30:43;94305.97;;;10.69;52.69
11692;BME280;33659;42.672;23.354;2023-02-23T07:33:10;94302.16;;;10.66;52.67
11692;BME280;33659;42.672;23.354;2023-02-23T07:35:37;94304.78;;;10.54;53.13
11692;BME280;33659;42.672;23.354;2023-02-23T07:38:03;94293.50;;;10.38;53.16
11692;BME280;33659;42.672;23.354;2023-02-23T07:40:31;94297.84;;;10.34;53.53
11692;BME280;33659;42.672;23.354;2023-02-23T07:42:59;94295.56;;;10.32;53.98
11692;BME280;33659;42.672;23.354;2023-02-23T07:45:26;94297.41;;;10.32;53.55
11692;BME280;33659;42.672;23.354;2023-02-23T07:47:53;94298.72;;;10.25;54.23
11692;BME280;33659;42.672;23.354;2023-02-23T07:50:19;94302.41;;;10.24;54.71
11692;BME280;33659;42.672;23.354;2023-02-23T07:52:46;94292.06;;;10.40;54.55
11692;BME280;33659;42.672;23.354;2023-02-23T07:55:13;94295.84;;;10.55;53.80
11692;BME280;33659;42.672;23.354;2023-02-23T07:57:39;94291.50;;;10.71;53.69
11692;BME280;33659;42.672;23.354;2023-02-23T08:00:09;94288.97;;;10.87;53.41
11692;BME280;33659;42.672;23.354;2023-02-23T08:02:36;94296.13;;;11.02;52.83
11692;BME280;33659;42.672;23.354;2023-02-23T08:05:03;94294.88;;;11.12;52.76
11692;BME280;33659;42.672;23.354;2023-02-23T08:07:30;94295.41;;;11.18;52.55
11692;BME280;33659;42.672;23.354;2023-02-23T08:09:57;94295.03;;;11.31;52.21
11692;BME280;33659;42.672;23.354;2023-02-23T08:12:24;94297.75;;;11.35;51.88
11692;BME280;33659;42.672;23.354;2023-02-23T08:14:51;94286.28;;;11.39;52.18
11692;BME280;33659;42.672;23.354;2023-02-23T08:17:19;94286.72;;;11.42;51.80
11692;BME280;33659;42.672;23.354;2023-02-23T08:19:46;94281.34;;;11.50;51.69
11692;BME280;33659;42.672;23.354;2023-02-23T08:22:13;94284.56;;;11.59;51.84
11692;BME280;33659;42.672;23.354;2023-02-23T08:24:40;94282.03;;;11.63;51.49
11692;BME280;33659;42.672;23.354;2023-02-23T08:27:07;94288.88;;;11.68;51.84
11692;BME280;33659;42.672;23.354;2023-02-23T08:29:33;94286.78;;;11.73;51.44
11692;BME280;33659;42.672;23.354;2023-02-23T08:32:01;94287.41;;;11.82;51.28
11692;BME280;33659;42.672;23.354;2023-02-23T08:34:30;94290.97;;;11.90;51.20
11692;BME280;33659;42.672;23.354;2023-02-23T08:36:57;94291.63;;;12.03;50.99
11692;BME280;33659;42.672;23.354;2023-02-23T08:39:24;94291.97;;;12.17;50.66
11692;BME280;33659;42.672;23.354;2023-02-23T08:41:50;94288.84;;;12.27;50.39
11692;BME280;33659;42.672;23.354;2023-02-23T08:44:19;94284.53;;;12.35;50.22
11692;BME280;33659;42.672;23.354;2023-02-23T08:46:46;94287.31;;;12.42;49.82
11692;BME280;33659;42.672;23.354;2023-02-23T08:49:13;94290.03;;;12.45;49.50
11692;BME280;33659;42.672;23.354;2023-02-23T08:51:41;94288.16;;;12.46;49.70
11692;BME280;33659;42.672;23.354;2023-02-23T08:54:08;94288.47;;;12.60;49.46
11692;BME280;33659;42.672;23.354;2023-02-23T08:56:39;94288.13;;;12.62;49.48
11692;BME280;33659;42.672;23.354;2023-02-23T08:59:05;94292.19;;;12.59;49.46
11692;BME280;33659;42.672;23.354;2023-02-23T09:01:33;94283.94;;;12.57;49.78
11692;BME280;33659;42.672;23.354;2023-02-23T09:03:59;94289.66;;;12.63;49.75
11692;BME280;33659;42.672;23.354;2023-02-23T09:06:26;94284.91;;;12.68;49.60
11692;BME280;33659;42.672;23.354;2023-02-23T09:08:55;94275.66;;;12.74;49.19
11692;BME280;33659;42.672;23.354;2023-02-23T09:11:22;94291.59;;;13.01;49.14
11692;BME280;33659;42.672;23.354;2023-02-23T09:13:49;94283.25;;;13.15;48.79
11692;BME280;33659;42.672;23.354;2023-02-23T09:16:16;94283.28;;;13.34;48.40
11692;BME280;33659;42.672;23.354;2023-02-23T09:18:42;94275.41;;;13.34;47.93
11692;BME280;33659;42.672;23.354;2023-02-23T09:21:13;94273.44;;;13.50;47.66
11692;BME280;33659;42.672;23.354;2023-02-23T09:23:43;94271.66;;;13.54;47.58
11692;BME280;33659;42.672;23.354;2023-02-23T09:26:11;94277.44;;;13.64;47.41
11692;BME280;33659;42.672;23.354;2023-02-23T09:28:38;94276.47;;;13.72;46.94
11692;BME280;33659;42.672;23.354;2023-02-23T09:31:06;94277.81;;;13.85;46.51
11692;BME280;33659;42.672;23.354;2023-02-23T09:33:33;94276.81;;;13.93;46.34
11692;BME280;33659;42.672;23.354;2023-02-23T09:36:03;94277.97;;;13.96;45.89
11692;BME280;33659;42.672;23.354;2023-02-23T09:38:31;94277.88;;;13.89;46.05
11692;BME280;33659;42.672;23.354;2023-02-23T09:40:57;94274.56;;;13.92;45.76
11692;BME280;33659;42.672;23.354;2023-02-23T09:43:29;94277.75;;;14.04;45.63
11692;BME280;33659;42.672;23.354;2023-02-23T09:46:09;94269.75;;;14.20;45.08
11692;BME280;33659;42.672;23.354;2023-02-23T09:48:38;94276.22;;;14.49;44.69
11692;BME280;33659;42.672;23.354;2023-02-23T09:51:07;94276.53;;;14.71;44.23
11692;BME280;33659;42.672;23.354;2023-02-23T09:53:39;94269.97;;;14.87;44.05
11692;BME280;33659;42.672;23.354;2023-02-23T09:56:11;94272.13;;;15.08;43.41
11692;BME280;33659;42.672;23.354;2023-02-23T09:58:41;94273.72;;;15.16;42.98
11692;BME280;33659;42.672;23.354;2023-02-23T10:01:42;94270.03;;;15.21;42.72
11692;BME280;33659;42.672;23.354;2023-02-23T10:04:17;94272.38;;;15.30;42.31
11692;BME280;33659;42.672;23.354;2023-02-23T10:06:50;94266.44;;;15.36;42.43
11692;BME280;33659;42.672;23.354;2023-02-23T10:09:23;94261.31;;;15.51;41.91
11692;BME280;33659;42.672;23.354;2023-02-23T10:11:59;94257.00;;;15.65;42.09
11692;BME280;33659;42.672;23.354;2023-02-23T10:14:54;94259.09;;;15.90;41.45
11692;BME280;33659;42.672;23.354;2023-02-23T10:17:31;94261.16;;;16.11;41.15
11692;BME280;33659;42.672;23.354;2023-02-23T10:20:11;94256.00;;;16.29;40.60
11692;BME280;33659;42.672;23.354;2023-02-23T10:22:39;94254.91;;;16.30;40.17
11692;BME280;33659;42.672;23.354;2023-02-23T10:25:10;94249.72;;;16.44;39.88
11692;BME280;33659;42.672;23.354;2023-02-23T10:27:40;94250.50;;;16.48;39.50
11692;BME280;33659;42.672;23.354;2023-02-23T10:30:17;94245.66;;;16.57;39.14
11692;BME280;33659;42.672;23.354;2023-02-23T10:32:49;94240.88;;;16.73;39.21
11692;BME280;33659;42.672;23.354;2023-02-23T10:35:19;94231.97;;;16.96;38.96
11692;BME280;33659;42.672;23.354;2023-02-23T10:37:47;94233.53;;;17.18;38.58
11692;BME280;33659;42.672;23.354;2023-02-23T10:40:16;94233.97;;;17.38;38.42
11692;BME280;33659;42.672;23.354;2023-02-23T10:42:45;94224.97;;;17.64;37.93
11692;BME280;33659;42.672;23.354;2023-02-23T10:45:14;94216.75;;;17.87;37.58
11692;BME280;33659;42.672;23.354;2023-02-23T10:47:49;94219.75;;;18.14;36.98
11692;BME280;33659;42.672;23.354;2023-02-23T10:50:18;94211.84;;;18.35;36.60
11692;BME280;33659;42.672;23.354;2023-02-23T10:52:48;94217.44;;;18.59;36.22
11692;BME280;33659;42.672;23.354;2023-02-23T10:55:21;94205.31;;;18.79;35.89
11692;BME280;33659;42.672;23.354;2023-02-23T10:58:00;94201.44;;;19.09;35.50
11692;BME280;33659;42.672;23.354;2023-02-23T11:00:30;94198.75;;;19.12;35.49
11692;BME280;33659;42.672;23.354;2023-02-23T11:03:00;94206.69;;;19.19;35.44
11692;BME280;33659;42.672;23.354;2023-02-23T11:05:31;94201.38;;;19.23;35.16
11692;BME280;33659;42.672;23.354;2023-02-23T11:08:18;94202.06;;;19.34;34.99
11692;BME280;33659;42.672;23.354;2023-02-23T11:10:58;94197.78;;;19.55;34.70
11692;BME280;33659;42.672;23.354;2023-02-23T11:13:27;94190.50;;;19.73;34.33
11692;BME280;33659;42.672;23.354;2023-02-23T11:16:00;94190.84;;;19.79;34.16
11692;BME280;33659;42.672;23.354;2023-02-23T11:18:28;94189.25;;;19.88;33.87
11692;BME280;33659;42.672;23.354;2023-02-23T11:20:56;94174.63;;;19.73;33.77
11692;BME280;33659;42.672;23.354;2023-02-23T11:23:25;94184.81;;;19.78;33.83
11692;BME280;33659;42.672;23.354;2023-02-23T11:25:54;94182.44;;;19.91;33.65
11692;BME280;33659;42.672;23.354;2023-02-23T11:28:28;94179.25;;;20.10;33.52
11692;BME280;33659;42.672;23.354;2023-02-23T11:30:59;94170.34;;;20.31;33.00
11692;BME280;33659;42.672;23.354;2023-02-23T11:33:30;94152.94;;;20.26;32.81
11692;BME280;33659;42.672;23.354;2023-02-23T11:36:14;94176.66;;;20.44;32.58
11692;BME280;33659;42.672;23.354;2023-02-23T11:38:41;94178.47;;;20.54;32.40
11692;BME280;33659;42.672;23.354;2023-02-23T11:41:18;94170.94;;;20.49;32.50
11692;BME280;33659;42.672;23.354;2023-02-23T11:43:47;94164.75;;;20.60;32.14
11692;BME280;33659;42.672;23.354;2023-02-23T11:46:17;94167.03;;;20.61;32.29
11692;BME280;33659;42.672;23.354;2023-02-23T11:48:49;94162.19;;;20.52;32.53
11692;BME280;33659;42.672;23.354;2023-02-23T11:51:25;94154.88;;;20.64;32.08
11692;BME280;33659;42.672;23.354;2023-02-23T11:53:53;94163.66;;;20.57;32.33
11692;BME280;33659;42.672;23.354;2023-02-23T11:56:22;94156.97;;;20.45;32.34
11692;BME280;33659;42.672;23.354;2023-02-23T11:58:51;94154.44;;;20.31;32.45
11692;BME280;33659;42.672;23.354;2023-02-23T12:01:25;94156.50;;;20.09;33.08
11692;BME280;33659;42.672;23.354;2023-02-23T12:04:00;94153.97;;;19.98;33.52
11692;BME280;33659;42.672;23.354;2023-02-23T12:06:29;94149.44;;;19.95;33.13
11692;BME280;33659;42.672;23.354;2023-02-23T12:09:00;94150.75;;;19.73;33.29
11692;BME280;33659;42.672;23.354;2023-02-23T12:11:33;94150.78;;;19.69;32.94
11692;BME280;33659;42.672;23.354;2023-02-23T12:14:08;94140.63;;;19.64;32.94
11692;BME280;33659;42.672;23.354;2023-02-23T12:16:41;94152.28;;;19.74;33.13
11692;BME280;33659;42.672;23.354;2023-02-23T12:19:21;94145.63;;;19.96;33.03
11692;BME280;33659;42.672;23.354;2023-02-23T12:21:54;94137.38;;;19.91;32.91
11692;BME280;33659;42.672;23.354;2023-02-23T12:24:28;94146.91;;;19.85;33.15
11692;BME280;33659;42.672;23.354;2023-02-23T12:27:00;94140.66;;;19.54;33.61
11692;BME280;33659;42.672;23.354;2023-02-23T12:29:35;94132.59;;;19.12;34.39
11692;BME280;33659;42.672;23.354;2023-02-23T12:32:11;94131.25;;;18.79;35.03
11692;BME280;33659;42.672;23.354;2023-02-23T12:34:45;94136.97;;;18.53;35.48
11692;BME280;33659;42.672;23.354;2023-02-23T12:37:24;94128.75;;;18.29;36.13
11692;BME280;33659;42.672;23.354;2023-02-23T12:39:56;94134.78;;;18.26;36.41
11692;BME280;33659;42.672;23.354;2023-02-23T12:42:29;94132.91;;;18.23;36.36
11692;BME280;33659;42.672;23.354;2023-02-23T12:45:03;94139.72;;;18.24;36.56
11692;BME280;33659;42.672;23.354;2023-02-23T12:47:35;94135.91;;;18.32;36.38
11692;BME280;33659;42.672;23.354;2023-02-23T12:50:10;94132.09;;;18.40;36.34
11692;BME280;33659;42.672;23.354;2023-02-23T12:52:43;94130.59;;;18.50;36.03
11692;BME280;33659;42.672;23.354;2023-02-23T12:55:13;94132.88;;;18.37;36.13
11692;BME280;33659;42.672;23.354;2023-02-23T12:57:46;94129.88;;;18.28;36.35
11692;BME280;33659;42.672;23.354;2023-02-23T13:00:32;94132.13;;;18.33;36.42
11692;BME280;33659;42.672;23.354;2023-02-23T13:06:07;94123.47;;;18.29;36.34
11692;BME280;33659;42.672;23.354;2023-02-23T13:08:50;94121.56;;;18.33;36.56
11692;BME280;33659;42.672;23.354;2023-02-23T13:11:32;94117.03;;;18.37;36.37
11692;BME280;33659;42.672;23.354;2023-02-23T13:14:11;94126.03;;;18.47;36.23
11692;BME280;33659;42.672;23.354;2023-02-23T13:16:44;94117.75;;;18.41;35.91
11692;BME280;33659;42.672;23.354;2023-02-23T13:19:19;94120.03;;;18.39;36.20
11692;BME280;33659;42.672;23.354;2023-02-23T13:21:50;94129.88;;;18.32;36.14
11692;BME280;33659;42.672;23.354;2023-02-23T13:24:22;94121.94;;;18.28;36.28
11692;BME280;33659;42.672;23.354;2023-02-23T13:26:54;94123.88;;;18.17;36.47
11692;BME280;33659;42.672;23.354;2023-02-23T13:29:31;94114.06;;;17.96;36.69
11692;BME280;33659;42.672;23.354;2023-02-23T13:32:00;94113.72;;;17.91;36.90
11692;BME280;33659;42.672;23.354;2023-02-23T13:34:31;94112.59;;;17.77;37.05